Palmer Park, Maryland
Current Conditions -  °F | °C
As of 8:30 AM on Thursday 27 Nov 2014 (Local Time) from KCGS Reporting Station
Overcast Overcast  
Wind Chill: 36°   Ceiling: 4800
Heat Index: 36°   Visibility: 5mi
Dew Point: 36°   Wind: 0mph
Humidity: 100%   Direction: NA
Pressure: 30.05"   Gusts: NA
Location:  38.9183°N, 76.8721°W
Report Text: KCGS 271330Z AUTO 00000KT 5SM OVC048 02/02 A3005 RMK AO1
Loading
Personal Weather Stations






























Interactive Weather Map New forecast layout! Learn more

10-Day Weather Forecast

Advertisements
Track Severe Weather on mobile